Time;durP1;ratioP1;P1;durP2;ratioP2;P2;SDS_P1;SDS_P2;PMS_P1;PMS_P2;Temp;Humidity;BMP_temperature;BMP_pressure;BME280_temperature;BME280_humidity;BME280_pressure;Samples;Min_cycle;Max_cycle;Signal;HPM_P1;HPM_P2
2021/05/06 00:34:30;;;;;;;7.70;1.87;;;;;;;5.03;99.55;99889.88;4999307;28;20197;-80
2021/05/06 00:36:56;;;;;;;6.23;1.77;;;;;;;4.99;99.97;99900.34;5026038;28;20259;-78
2021/05/06 00:39:29;;;;;;;3.53;1.50;;;;;;;5.05;99.41;99896.66;4995062;28;20185;-79
2021/05/06 00:55:47;;;;;;;7.57;1.70;;;;;;;5.08;98.32;99893.44;4992044;28;20730;-78
2021/05/06 01:03:59;;;;;;;7.13;1.80;;;;;;;5.12;97.97;99881.09;5005592;28;20203;-78
2021/05/06 01:06:26;;;;;;;4.60;1.43;;;;;;;5.08;98.02;99881.88;5001978;28;20300;-78
2021/05/06 01:08:57;;;;;;;5.00;1.73;;;;;;;5.10;97.92;99885.91;5004268;28;20562;-78
2021/05/06 01:11:36;;;;;;;7.20;1.70;;;;;;;5.02;97.89;99881.00;5019667;28;20244;-78
2021/05/06 01:14:06;;;;;;;6.23;1.93;;;;;;;4.93;98.42;99868.28;5005102;28;20268;-78
2021/05/06 01:16:31;;;;;;;9.10;1.70;;;;;;;4.99;97.73;99870.75;5018026;28;20243;-78
2021/05/06 01:19:00;;;;;;;5.00;1.73;;;;;;;4.97;97.84;99877.47;5019169;28;20189;-80
2021/05/06 01:21:26;;;;;;;8.10;1.80;;;;;;;4.95;98.19;99876.09;5018185;28;20217;-78
2021/05/06 01:23:54;;;;;;;8.00;1.40;;;;;;;4.98;98.19;99881.75;5002119;28;20188;-78
2021/05/06 01:26:33;;;;;;;16.10;3.00;;;;;;;4.88;98.43;99878.19;5018252;28;20299;-79
2021/05/06 01:29:01;;;;;;;5.63;1.50;;;;;;;4.93;98.17;99884.41;5005605;28;20212;-78
2021/05/06 01:31:32;;;;;;;7.57;1.60;;;;;;;4.88;98.73;99873.59;5004350;28;20236;-78
2021/05/06 01:34:08;;;;;;;7.33;1.73;;;;;;;4.83;98.84;99880.81;5002596;28;20200;-78
2021/05/06 01:36:45;;;;;;;4.70;1.70;;;;;;;4.81;99.30;99878.38;5000810;28;20220;-79
2021/05/06 01:47:18;;;;;;;9.10;1.80;;;;;;;4.63;100.00;99880.59;5017150;28;20244;-79
2021/05/06 01:49:59;;;;;;;7.50;1.50;;;;;;;4.59;100.00;99882.97;5017155;28;20192;-78
2021/05/06 02:00:29;;;;;;;8.53;1.83;;;;;;;4.46;100.00;99885.25;5018450;28;20236;-79
2021/05/06 02:03:04;;;;;;;9.90;1.97;;;;;;;4.35;100.00;99893.47;5017873;28;20275;-78
2021/05/06 02:05:35;;;;;;;9.07;1.87;;;;;;;4.36;100.00;99871.72;5002096;28;20291;-78
2021/05/06 02:08:02;;;;;;;9.10;1.87;;;;;;;4.34;100.00;99889.97;5017885;28;20298;-79
2021/05/06 02:10:33;;;;;;;8.97;2.07;;;;;;;4.20;100.00;99885.22;4984368;28;20233;-78
2021/05/06 02:13:01;;;;;;;6.80;1.83;;;;;;;4.36;100.00;99871.72;5031616;28;20212;-79
2021/05/06 02:15:31;;;;;;;7.37;2.03;;;;;;;4.30;100.00;99877.25;5007631;28;20224;-79
2021/05/06 02:17:57;;;;;;;10.07;2.20;;;;;;;4.27;100.00;99872.41;4993927;28;20205;-79
2021/05/06 02:20:26;;;;;;;7.47;2.07;;;;;;;4.28;100.00;99868.66;5007839;28;20204;-78
2021/05/06 02:22:55;;;;;;;6.57;1.80;;;;;;;4.20;100.00;99877.16;5018224;28;20196;-79
2021/05/06 02:25:23;;;;;;;7.13;1.77;;;;;;;4.33;100.00;99874.88;4999010;28;20193;-78
2021/05/06 02:27:51;;;;;;;8.80;2.27;;;;;;;4.23;100.00;99871.25;5018101;28;20201;-79
2021/05/06 02:30:19;;;;;;;7.13;2.03;;;;;;;4.35;100.00;99870.06;4998760;28;20221;-79
2021/05/06 02:32:45;;;;;;;7.80;1.70;;;;;;;4.33;100.00;99866.03;4999101;28;20174;-78
2021/05/06 02:35:13;;;;;;;8.73;2.20;;;;;;;4.28;100.00;99869.44;5015075;28;20551;-79
2021/05/06 02:37:42;;;;;;;13.57;1.80;;;;;;;4.25;100.00;99867.28;4985016;28;20355;-80
2021/05/06 02:40:09;;;;;;;6.97;1.90;;;;;;;4.44;100.00;99879.31;5000829;28;20192;-78
2021/05/06 02:42:34;;;;;;;5.90;2.10;;;;;;;4.32;100.00;99867.91;4981199;28;20742;-78
2021/05/06 02:45:06;;;;;;;9.50;2.40;;;;;;;4.32;100.00;99873.28;4998924;28;20330;-78
2021/05/06 02:47:31;;;;;;;6.50;2.10;;;;;;;4.41;100.00;99863.69;4995420;28;20197;-77
2021/05/06 02:49:57;;;;;;;7.13;2.10;;;;;;;4.29;100.00;99873.78;4996894;28;20209;-77
2021/05/06 02:55:01;;;;;;;9.17;2.77;;;;;;;4.26;100.00;99876.16;5031884;28;20173;-78
2021/05/06 03:03:08;;;;;;;8.07;2.10;;;;;;;4.29;100.00;99871.09;4969094;28;20224;-79
2021/05/06 03:05:37;;;;;;;10.73;2.40;;;;;;;4.33;100.00;99868.72;5030954;28;20240;-78
2021/05/06 03:08:19;;;;;;;7.57;1.90;;;;;;;4.15;100.00;99866.34;5014504;28;20261;-77
2021/05/06 03:11:32;;;;;;;7.90;2.00;;;;;;;4.38;100.00;99864.22;5014644;28;20279;-76
2021/05/06 03:14:13;;;;;;;5.23;1.80;;;;;;;4.39;100.00;99863.13;4992640;28;20208;-78
2021/05/06 03:25:12;;;;;;;7.87;2.00;;;;;;;4.31;100.00;99862.78;4980025;28;20224;-78
2021/05/06 03:27:46;;;;;;;7.77;2.33;;;;;;;4.24;100.00;99862.97;4988784;28;20220;-78
2021/05/06 04:18:16;;;;;;;9.57;2.40;;;;;;;5.21;99.99;99866.09;4980244;28;20206;-77
2021/05/06 04:36:15;;;;;;;8.60;2.23;;;;;;;5.99;94.19;99875.00;4994068;28;20225;-78
2021/05/06 04:38:41;;;;;;;4.87;2.07;;;;;;;6.30;93.38;99870.31;4966707;28;20201;-79
2021/05/06 04:54:44;;;;;;;6.40;2.33;;;;;;;6.54;90.82;99880.38;5015653;28;20177;-79
2021/05/06 05:05:01;;;;;;;6.73;1.90;;;;;;;6.46;88.61;99887.34;4989829;28;20192;-80
2021/05/06 05:07:34;;;;;;;7.57;2.00;;;;;;;6.39;87.42;99881.38;5018731;28;20223;-80
2021/05/06 05:10:31;;;;;;;6.10;2.17;;;;;;;6.51;89.15;99891.66;5017299;28;20741;-80
2021/05/06 05:24:00;;;;;;;3.93;1.63;;;;;;;6.60;87.72;99881.19;5040702;28;20186;-79
2021/05/06 05:26:28;;;;;;;5.50;1.90;;;;;;;6.48;89.59;99880.59;5036604;28;20235;-79
2021/05/06 05:28:55;;;;;;;4.10;1.73;;;;;;;6.70;87.88;99871.25;5052952;28;20183;-77
2021/05/06 05:31:25;;;;;;;6.60;1.83;;;;;;;6.76;87.67;99872.03;5019047;28;20242;-81
2021/05/06 05:34:03;;;;;;;5.53;2.57;;;;;;;6.76;87.19;99875.56;5002696;28;20176;-80
2021/05/06 05:36:31;;;;;;;6.03;2.07;;;;;;;6.51;88.72;99875.50;5034181;28;20247;-79
2021/05/06 05:39:21;;;;;;;5.37;2.00;;;;;;;6.43;90.96;99885.16;5034289;28;20286;-78
2021/05/06 05:55:25;;;;;;;4.40;1.90;;;;;;;6.65;94.00;99882.03;5036989;28;20302;-79
2021/05/06 05:57:52;;;;;;;5.57;1.73;;;;;;;6.36;94.83;99884.63;5001689;28;20628;-79
2021/05/06 06:00:22;;;;;;;5.93;1.73;;;;;;;6.53;95.30;99881.44;5023392;28;20177;-78
2021/05/06 06:02:48;;;;;;;3.00;1.60;;;;;;;6.36;95.69;99884.63;5002360;28;20212;-78
2021/05/06 06:05:13;;;;;;;5.27;1.90;;;;;;;6.41;95.93;99890.00;5002233;28;20195;-78
2021/05/06 06:07:39;;;;;;;4.93;1.73;;;;;;;6.52;96.87;99898.69;5017999;28;20211;-78
2021/05/06 06:10:06;;;;;;;4.83;1.90;;;;;;;6.57;96.77;99893.34;5032162;28;20255;-78
2021/05/06 06:12:31;;;;;;;6.60;2.47;;;;;;;6.50;96.97;99893.81;5047751;28;20224;-79
2021/05/06 06:17:22;;;;;;;6.67;1.90;;;;;;;6.68;96.79;99903.06;5017784;28;20599;-78
2021/05/06 06:19:51;;;;;;;5.83;1.80;;;;;;;6.75;97.81;99898.22;5015499;28;20196;-77
2021/05/06 06:22:20;;;;;;;9.63;1.73;;;;;;;6.68;95.72;99892.25;5032564;28;20605;-78
2021/05/06 06:24:46;;;;;;;4.27;1.97;;;;;;;6.71;96.05;99891.75;5037429;28;20180;-78
2021/05/06 06:27:15;;;;;;;4.83;1.97;;;;;;;6.77;95.47;99895.25;5018074;28;20240;-77
2021/05/06 06:29:44;;;;;;;4.47;1.77;;;;;;;6.82;93.91;99882.59;5034132;28;20202;-78
2021/05/06 06:32:14;;;;;;;4.40;1.93;;;;;;;6.75;94.25;99887.44;5030167;28;20232;-78
2021/05/06 06:34:44;;;;;;;6.10;1.83;;;;;;;7.17;92.75;99888.03;5032055;28;20187;-78
2021/05/06 06:37:12;;;;;;;5.43;1.90;;;;;;;7.28;90.80;99877.78;5000164;28;20418;-77
2021/05/06 06:39:41;;;;;;;3.87;1.70;;;;;;;7.53;90.10;99880.50;5032016;28;20176;-79
2021/05/06 06:42:08;;;;;;;3.87;1.80;;;;;;;7.21;88.92;99881.03;5050246;28;20655;-78
2021/05/06 06:44:34;;;;;;;3.07;1.73;;;;;;;7.29;89.41;99892.13;5020265;28;20182;-78
2021/05/06 06:47:06;;;;;;;5.63;2.00;;;;;;;7.01;90.18;99886.41;5025433;28;20239;-78
2021/05/06 06:49:38;;;;;;;3.53;1.60;;;;;;;7.27;88.73;99879.94;5028066;28;20184;-80
2021/05/06 06:52:09;;;;;;;3.73;1.97;;;;;;;7.29;89.20;99889.41;5037761;28;20398;-78
2021/05/06 06:54:34;;;;;;;4.77;1.90;;;;;;;7.41;87.71;99888.03;5043108;28;20192;-79
2021/05/06 06:57:08;;;;;;;3.30;1.70;;;;;;;7.28;87.48;99903.19;5001921;28;20602;-78
2021/05/06 06:59:35;;;;;;;3.40;1.80;;;;;;;7.57;87.97;99889.66;5018065;28;20192;-79
2021/05/06 07:02:01;;;;;;;4.00;2.10;;;;;;;7.74;86.46;99892.88;5001955;28;20224;-78
2021/05/06 07:04:30;;;;;;;2.83;1.50;;;;;;;8.10;84.90;99890.69;5017309;28;20184;-79
2021/05/06 07:06:59;;;;;;;3.90;1.63;;;;;;;7.61;84.16;99888.03;5018749;28;20243;-79
2021/05/06 07:09:25;;;;;;;3.33;1.70;;;;;;;7.51;86.67;99901.56;5003051;28;20176;-78
2021/05/06 07:11:50;;;;;;;5.67;1.70;;;;;;;7.74;85.34;99893.69;5039129;28;20293;-79
2021/05/06 07:14:16;;;;;;;3.40;1.47;;;;;;;7.84;82.87;99888.28;5061707;28;20768;-79
2021/05/06 07:16:44;;;;;;;4.53;1.80;;;;;;;7.61;84.01;99887.22;5037779;28;20239;-79
2021/05/06 07:19:12;;;;;;;5.27;1.53;;;;;;;8.02;82.16;99879.56;5038315;28;20243;-79
2021/05/06 07:21:38;;;;;;;3.43;1.60;;;;;;;8.07;83.48;99885.78;5036820;28;20665;-79
2021/05/06 07:24:07;;;;;;;3.37;1.60;;;;;;;7.92;82.09;99886.91;5038133;28;20276;-79
2021/05/06 07:26:35;;;;;;;6.37;2.00;;;;;;;7.96;82.62;99902.31;5007136;28;20228;-79
2021/05/06 07:29:03;;;;;;;4.67;1.60;;;;;;;8.40;79.16;99890.56;5060177;28;20181;-80
2021/05/06 07:31:31;;;;;;;6.17;1.83;;;;;;;8.55;76.13;99882.38;5006955;28;20240;-79
2021/05/06 07:33:59;;;;;;;4.87;1.90;;;;;;;8.56;77.61;99884.00;5007402;28;20271;-79
2021/05/06 07:36:27;;;;;;;4.07;1.80;;;;;;;8.39;76.77;99891.66;5023104;28;20224;-79
2021/05/06 07:38:53;;;;;;;2.30;1.10;;;;;;;8.60;75.73;99898.59;5039185;28;20199;-79
2021/05/06 07:41:18;;;;;;;4.47;1.60;;;;;;;8.46;73.07;99892.16;5041889;28;20236;-80
2021/05/06 07:43:44;;;;;;;6.83;1.70;;;;;;;8.34;75.15;99904.41;5039265;28;20221;-79
2021/05/06 07:46:11;;;;;;;6.10;1.33;;;;;;;8.35;73.72;99896.03;5041656;28;20235;-79
2021/05/06 07:48:37;;;;;;;4.23;1.50;;;;;;;8.69;74.14;99896.94;5024662;28;20192;-78
2021/05/06 07:51:05;;;;;;;3.40;1.43;;;;;;;8.71;73.46;99911.00;5025127;28;20228;-81
2021/05/06 07:53:43;;;;;;;2.43;1.30;;;;;;;8.51;73.43;99911.09;5027769;28;20262;-79
2021/05/06 07:56:09;;;;;;;3.53;1.60;;;;;;;8.87;72.00;99897.13;5031973;28;20723;-79
2021/05/06 07:58:39;;;;;;;3.63;1.37;;;;;;;9.09;70.89;99901.03;5023325;28;20184;-80
2021/05/06 08:01:07;;;;;;;4.57;1.40;;;;;;;9.10;67.52;99894.53;5054354;28;20531;-81
2021/05/06 08:03:36;;;;;;;4.43;1.33;;;;;;;9.23;69.12;99900.13;5054880;28;20172;-81
2021/05/06 08:06:04;;;;;;;4.60;1.40;;;;;;;8.87;68.55;99895.22;5036511;28;20813;-80
2021/05/06 08:08:32;;;;;;;3.27;1.37;;;;;;;9.10;68.13;99912.66;5044162;28;20208;-79
2021/05/06 08:11:00;;;;;;;3.90;1.67;;;;;;;9.45;63.99;99910.50;5046797;28;20228;-80
2021/05/06 08:13:27;;;;;;;4.93;1.40;;;;;;;9.20;66.59;99905.28;5045510;28;20279;-79
2021/05/06 08:15:53;;;;;;;4.17;1.17;;;;;;;9.04;67.81;99905.66;5042045;28;20216;-77
2021/05/06 08:18:18;;;;;;;4.47;2.27;;;;;;;8.65;68.20;99912.13;5041010;28;20204;-78
2021/05/06 08:20:44;;;;;;;3.57;1.53;;;;;;;8.87;66.43;99900.63;5009914;28;20216;-78
2021/05/06 08:23:10;;;;;;;3.63;1.10;;;;;;;9.35;66.49;99918.72;5040691;28;20946;-78
2021/05/06 08:25:36;;;;;;;1.83;1.27;;;;;;;9.20;63.78;99909.91;5037265;28;20603;-79
2021/05/06 08:28:02;;;;;;;2.00;1.20;;;;;;;8.85;65.38;99902.00;5006554;28;20220;-79
2021/05/06 08:30:28;;;;;;;2.90;1.30;;;;;;;8.89;66.21;99908.47;5020397;28;20224;-79
2021/05/06 08:32:54;;;;;;;2.97;1.20;;;;;;;9.47;66.03;99900.19;5037958;28;20184;-77
2021/05/06 08:35:22;;;;;;;3.53;1.50;;;;;;;9.21;64.75;99921.28;5000907;28;20181;-80
2021/05/06 08:37:50;;;;;;;4.20;1.47;;;;;;;9.77;63.22;99912.41;5023145;28;20212;-80
2021/05/06 08:40:20;;;;;;;3.03;1.20;;;;;;;9.99;61.75;99915.47;5006543;28;20716;-79
2021/05/06 08:42:46;;;;;;;4.80;1.33;;;;;;;9.20;60.65;99918.84;4988824;28;20185;-80
2021/05/06 08:45:14;;;;;;;6.57;1.40;;;;;;;9.07;61.92;99927.59;5005927;28;20177;-79
2021/05/06 08:47:44;;;;;;;4.20;1.40;;;;;;;9.32;63.26;99930.94;5021155;28;20213;-79
2021/05/06 08:50:20;;;;;;;2.97;1.40;;;;;;;9.60;61.09;99922.88;4986388;28;20217;-79
2021/05/06 08:52:49;;;;;;;4.73;1.53;;;;;;;10.52;60.78;99915.16;5003825;28;20568;-78
2021/05/06 08:55:18;;;;;;;3.67;1.00;;;;;;;10.38;60.95;99919.66;5015997;28;20188;-78
2021/05/06 08:57:45;;;;;;;2.17;1.13;;;;;;;9.79;57.83;99929.19;5030150;28;20214;-78
2021/05/06 09:00:12;;;;;;;3.63;1.57;;;;;;;9.67;59.31;99928.78;5035682;28;20245;-79
2021/05/06 09:02:47;;;;;;;3.53;1.27;;;;;;;10.16;59.10;99935.66;5034271;28;20177;-78
2021/05/06 09:05:15;;;;;;;2.83;1.07;;;;;;;10.36;58.02;99921.06;5011971;28;20187;-78
2021/05/06 09:07:44;;;;;;;3.10;1.20;;;;;;;10.54;55.47;99921.91;5012740;28;20287;-78
2021/05/06 09:10:31;;;;;;;1.77;1.00;;;;;;;9.95;56.55;99928.00;5042101;28;20215;-78
2021/05/06 09:13:01;;;;;;;4.63;1.20;;;;;;;9.64;59.10;99929.34;5044020;28;20184;-79
2021/05/06 09:15:29;;;;;;;3.17;1.40;;;;;;;9.60;59.72;99944.56;5023100;28;20243;-79
2021/05/06 09:17:57;;;;;;;3.63;1.40;;;;;;;10.04;56.95;99931.72;5005315;28;20207;-80
2021/05/06 09:20:26;;;;;;;4.07;1.20;;;;;;;10.04;56.12;99931.72;5040468;28;20177;-79
2021/05/06 09:22:54;;;;;;;5.60;1.33;;;;;;;10.70;56.85;99923.34;5025344;28;20188;-79
2021/05/06 09:25:36;;;;;;;3.40;1.27;;;;;;;10.49;54.16;99919.28;4990646;28;20168;-78
2021/05/06 09:28:01;;;;;;;3.83;1.30;;;;;;;10.48;53.82;99931.22;5020890;28;20573;-78
2021/05/06 09:30:27;;;;;;;2.00;1.10;;;;;;;10.54;51.45;99924.63;5036318;28;20231;-79
2021/05/06 09:33:08;;;;;;;4.90;1.23;;;;;;;10.69;51.73;99926.38;5039054;28;20570;-80
2021/05/06 09:35:47;;;;;;;2.40;1.30;;;;;;;10.19;52.83;99931.56;5039712;28;20223;-78
2021/05/06 09:38:34;;;;;;;2.60;1.10;;;;;;;9.98;52.17;99932.84;5018476;28;20200;-78
2021/05/06 09:41:02;;;;;;;2.80;1.10;;;;;;;9.80;51.99;99922.69;5036852;28;20224;-78
2021/05/06 09:43:40;;;;;;;3.43;1.20;;;;;;;10.59;50.42;99932.72;5003973;28;20173;-78
2021/05/06 09:46:24;;;;;;;2.20;1.20;;;;;;;10.80;52.01;99924.06;5004806;28;20223;-79
2021/05/06 09:49:03;;;;;;;1.80;1.10;;;;;;;11.48;50.13;99912.47;5037670;28;20180;-77
2021/05/06 09:51:51;;;;;;;2.93;1.17;;;;;;;11.17;49.58;99924.88;5023813;28;20231;-78
2021/05/06 09:54:27;;;;;;;2.37;1.13;;;;;;;10.65;50.37;99925.34;5021845;28;20214;-79
2021/05/06 09:56:56;;;;;;;1.90;0.93;;;;;;;10.88;51.56;99923.38;5018583;28;20306;-79
2021/05/06 09:59:24;;;;;;;2.47;1.10;;;;;;;10.90;48.08;99923.09;5019468;28;20195;-79
2021/05/06 10:01:49;;;;;;;2.23;0.93;;;;;;;11.63;49.13;99904.09;5035211;28;20224;-79
2021/05/06 10:04:23;;;;;;;2.47;1.13;;;;;;;11.39;46.91;99916.94;5017389;28;20211;-78
2021/05/06 10:07:11;;;;;;;3.07;1.47;;;;;;;11.24;47.79;99914.44;5022192;28;20235;-80
2021/05/06 10:09:56;;;;;;;2.07;0.90;;;;;;;11.06;48.46;99929.94;5023207;28;20184;-79
2021/05/06 10:12:25;;;;;;;2.17;1.10;;;;;;;10.86;48.12;99919.34;5003065;28;20224;-78
2021/05/06 10:14:53;;;;;;;3.67;1.10;;;;;;;11.08;46.15;99922.28;5001809;28;20407;-79
2021/05/06 10:17:19;;;;;;;3.33;0.90;;;;;;;10.89;43.68;99918.75;5017745;28;20262;-78
2021/05/06 10:19:45;;;;;;;2.50;0.90;;;;;;;11.84;44.94;99908.88;5019271;28;20323;-80
2021/05/06 10:22:16;;;;;;;4.50;1.20;;;;;;;12.03;45.51;99910.44;5035642;28;20748;-78
2021/05/06 10:24:42;;;;;;;2.70;1.00;;;;;;;11.32;45.43;99911.06;5017640;28;20184;-79
2021/05/06 10:27:17;;;;;;;2.57;0.90;;;;;;;12.05;45.19;99907.38;5018119;28;20319;-79
2021/05/06 10:29:51;;;;;;;1.83;1.00;;;;;;;12.18;44.21;99910.16;5037604;28;20230;-79
2021/05/06 10:32:17;;;;;;;2.60;1.10;;;;;;;12.01;44.05;99914.53;5006701;28;20232;-79
2021/05/06 10:34:43;;;;;;;4.40;1.00;;;;;;;11.80;44.11;99912.50;5004055;28;20673;-78
2021/05/06 10:37:11;;;;;;;1.67;0.90;;;;;;;11.71;46.59;99897.94;5032585;28;20231;-78
2021/05/06 10:39:37;;;;;;;2.03;0.80;;;;;;;11.00;43.87;99923.75;5052151;28;20184;-79
2021/05/06 10:42:38;;;;;;;3.40;0.83;;;;;;;10.88;45.47;99919.88;5039411;28;20358;-79
2021/05/06 10:45:13;;;;;;;2.93;0.80;;;;;;;10.73;45.99;99922.75;4946644;28;20209;-79
2021/05/06 10:47:38;;;;;;;1.43;0.90;;;;;;;10.59;46.67;99930.00;5011809;28;20220;-78
2021/05/06 10:50:16;;;;;;;2.73;0.97;;;;;;;11.27;44.41;99919.28;5050587;28;20195;-79
2021/05/06 10:52:49;;;;;;;3.73;1.10;;;;;;;11.47;43.94;99918.22;5022036;28;20230;-79
2021/05/06 10:55:15;;;;;;;1.87;1.07;;;;;;;11.96;44.06;99912.72;5003315;28;20263;-78
2021/05/06 10:57:43;;;;;;;3.87;1.07;;;;;;;12.12;44.10;99905.88;5038570;28;20200;-80
2021/05/06 11:00:25;;;;;;;2.47;0.80;;;;;;;12.02;44.51;99911.53;5001412;28;20194;-79
2021/05/06 11:02:56;;;;;;;2.37;1.00;;;;;;;11.47;44.08;99907.34;5019004;28;20224;-78
2021/05/06 11:05:23;;;;;;;3.53;1.47;;;;;;;12.47;44.64;99894.31;5014380;28;20785;-78
2021/05/06 11:08:24;;;;;;;1.63;0.90;;;;;;;12.11;41.04;99898.84;5001586;28;20700;-78
2021/05/06 11:10:50;;;;;;;1.07;0.80;;;;;;;12.37;41.55;99906.22;5021521;28;20236;-80
2021/05/06 11:13:19;;;;;;;2.63;1.10;;;;;;;12.50;41.54;99912.78;5035675;28;20258;-77
2021/05/06 11:15:47;;;;;;;2.17;0.90;;;;;;;11.66;43.46;99911.63;5031844;28;20231;-78
2021/05/06 11:18:39;;;;;;;1.50;0.80;;;;;;;11.68;40.88;99912.94;5017457;28;20204;-77
2021/05/06 11:21:05;;;;;;;1.00;0.70;;;;;;;11.89;40.75;99910.72;5037172;28;20234;-79
2021/05/06 11:23:34;;;;;;;1.30;0.90;;;;;;;12.38;41.54;99901.56;5017747;28;20184;-79
2021/05/06 11:26:04;;;;;;;1.63;0.83;;;;;;;12.37;40.13;99914.41;5003556;28;20216;-80
2021/05/06 11:28:29;;;;;;;3.70;0.93;;;;;;;12.35;39.99;99897.56;5023415;28;20227;-79
2021/05/06 11:30:56;;;;;;;2.47;0.87;;;;;;;12.30;40.47;99894.13;5034818;28;20617;-78
2021/05/06 11:33:25;;;;;;;2.70;1.00;;;;;;;13.18;40.61;99902.31;5035184;28;20211;-80
2021/05/06 11:36:04;;;;;;;1.10;0.90;;;;;;;13.10;41.58;99886.69;5036284;28;20227;-80
2021/05/06 11:38:39;;;;;;;2.27;1.10;;;;;;;12.84;40.91;99890.28;5040699;28;20691;-78
2021/05/06 11:41:13;;;;;;;1.43;0.80;;;;;;;12.94;40.24;99886.53;5052599;28;20224;-78
2021/05/06 11:43:58;;;;;;;1.97;0.80;;;;;;;12.92;40.58;99872.41;5036939;28;20200;-79
2021/05/06 11:46:35;;;;;;;2.03;1.37;;;;;;;13.19;40.44;99867.69;5001407;28;20720;-79
2021/05/06 11:49:04;;;;;;;2.93;0.90;;;;;;;13.38;38.92;99871.84;5005584;28;20207;-80
2021/05/06 11:51:37;;;;;;;2.53;0.80;;;;;;;13.38;39.17;99866.41;5034248;28;20232;-78
2021/05/06 11:54:22;;;;;;;1.00;0.80;;;;;;;13.13;36.16;99869.72;5022674;28;20184;-78
2021/05/06 11:56:58;;;;;;;2.50;0.80;;;;;;;13.43;36.98;99868.22;5034410;28;20586;-78
2021/05/06 11:59:25;;;;;;;1.40;0.90;;;;;;;13.07;37.05;99870.13;5004272;28;20191;-78
2021/05/06 12:01:54;;;;;;;2.10;0.90;;;;;;;12.85;38.78;99867.38;5051596;28;20228;-79
2021/05/06 12:04:26;;;;;;;1.67;0.90;;;;;;;13.21;38.39;99868.19;5022495;28;20176;-80
2021/05/06 12:06:55;;;;;;;1.80;0.83;;;;;;;13.41;37.85;99862.25;5035574;28;20234;-79
2021/05/06 12:09:28;;;;;;;2.60;0.87;;;;;;;13.34;36.71;99854.50;5036853;28;20712;-79
2021/05/06 12:11:56;;;;;;;1.90;1.00;;;;;;;13.17;38.98;99862.53;5041759;28;20236;-79
2021/05/06 12:14:38;;;;;;;1.53;1.07;;;;;;;12.99;39.11;99862.69;5009793;28;20189;-80
2021/05/06 12:17:04;;;;;;;2.03;0.90;;;;;;;13.38;38.72;99860.13;5036821;28;20224;-79
2021/05/06 12:19:42;;;;;;;1.67;0.90;;;;;;;13.02;39.09;99850.38;5024366;28;20226;-78
2021/05/06 12:22:08;;;;;;;2.83;1.13;;;;;;;12.66;39.27;99862.34;5040164;28;20223;-80
2021/05/06 12:24:38;;;;;;;2.80;1.30;;;;;;;12.63;39.77;99860.22;5023852;28;20180;-79
2021/05/06 12:27:26;;;;;;;1.43;1.10;;;;;;;12.82;40.96;99851.66;5010091;28;20251;-79
2021/05/06 12:29:52;;;;;;;1.83;1.20;;;;;;;12.57;40.82;99858.72;5042585;28;20195;-80
2021/05/06 12:32:21;;;;;;;2.00;1.43;;;;;;;12.76;41.98;99852.84;5040846;28;20243;-79
2021/05/06 12:34:49;;;;;;;2.93;1.30;;;;;;;13.41;41.83;99849.41;5046130;28;20231;-79
2021/05/06 12:37:16;;;;;;;1.43;1.20;;;;;;;13.19;41.48;99841.22;5050573;28;20235;-78
2021/05/06 12:39:42;;;;;;;1.87;1.13;;;;;;;13.41;41.21;99840.44;5030645;28;20198;-81
2021/05/06 12:42:10;;;;;;;1.40;1.30;;;;;;;13.61;40.72;99830.63;5064091;28;20243;-79
2021/05/06 12:44:47;;;;;;;2.77;1.10;;;;;;;13.47;36.25;99846.25;5007639;28;20203;-81
2021/05/06 12:47:24;;;;;;;1.67;1.10;;;;;;;13.20;37.05;99847.47;5010032;28;20695;-80
2021/05/06 12:50:07;;;;;;;2.93;1.10;;;;;;;13.37;38.10;99834.78;5012496;28;20191;-80
2021/05/06 12:52:37;;;;;;;2.37;1.10;;;;;;;13.68;39.48;99827.44;5027940;28;20643;-81
2021/05/06 12:55:26;;;;;;;1.87;1.20;;;;;;;14.31;40.94;99827.59;5010234;28;20262;-79
2021/05/06 12:58:16;;;;;;;2.23;1.20;;;;;;;14.21;38.97;99827.06;5034217;28;20283;-77
2021/05/06 13:00:51;;;;;;;1.77;1.00;;;;;;;13.65;38.19;99828.88;5017440;28;20225;-79
2021/05/06 13:03:17;;;;;;;3.17;1.10;;;;;;;13.72;36.22;99828.44;5006861;28;20185;-81
2021/05/06 13:05:47;;;;;;;1.77;1.03;;;;;;;13.75;38.04;99825.88;4985764;28;20229;-79
2021/05/06 13:08:15;;;;;;;1.37;1.20;;;;;;;14.26;36.86;99824.22;5000085;28;20209;-80
2021/05/06 13:10:45;;;;;;;2.60;1.10;;;;;;;14.82;38.18;99817.59;4996507;28;20232;-78
2021/05/06 13:13:12;;;;;;;2.07;0.93;;;;;;;14.17;36.17;99828.03;4995740;28;20272;-79
2021/05/06 13:15:50;;;;;;;2.00;1.10;;;;;;;13.53;37.97;99820.47;4998268;28;20699;-77
2021/05/06 13:18:18;;;;;;;3.27;1.33;;;;;;;13.31;41.19;99827.03;5008386;28;20205;-77
2021/05/06 13:20:43;;;;;;;1.40;1.10;;;;;;;13.70;40.72;99820.56;4997863;28;20225;-77
2021/05/06 13:23:15;;;;;;;2.43;1.30;;;;;;;13.51;42.09;99819.16;4996644;28;20216;-77
2021/05/06 13:25:51;;;;;;;1.97;1.30;;;;;;;13.30;43.91;99819.97;4994939;28;20216;-80
2021/05/06 13:28:42;;;;;;;1.87;1.20;;;;;;;13.72;44.74;99829.25;5029203;28;20235;-79
2021/05/06 13:31:21;;;;;;;2.83;1.20;;;;;;;13.34;44.35;99832.66;4991509;28;20649;-78
2021/05/06 13:34:14;;;;;;;1.77;1.00;;;;;;;13.00;44.85;99833.50;4979289;28;20563;-79
2021/05/06 13:36:44;;;;;;;1.97;0.90;;;;;;;13.13;44.96;99838.91;4993004;28;20729;-78
2021/05/06 13:39:12;;;;;;;2.33;1.00;;;;;;;12.63;44.76;99843.88;5000240;28;20189;-79
2021/05/06 13:41:45;;;;;;;2.63;1.33;;;;;;;12.77;46.26;99837.28;4997597;28;20220;-79
2021/05/06 13:44:18;;;;;;;1.80;1.07;;;;;;;12.91;44.05;99838.91;4998212;28;20185;-78
2021/05/06 13:46:56;;;;;;;1.33;0.80;;;;;;;12.86;44.80;99836.28;5007655;28;20229;-79
2021/05/06 13:49:29;;;;;;;9.50;7.97;;;;;;;13.31;43.58;99832.47;4999848;28;20191;-79
2021/05/06 13:51:58;;;;;;;2.67;1.67;;;;;;;12.94;43.41;99832.81;5012397;28;20231;-80
2021/05/06 13:54:26;;;;;;;1.63;0.80;;;;;;;12.82;43.55;99824.38;4997836;28;20271;-79
2021/05/06 13:56:57;;;;;;;2.47;2.00;;;;;;;12.96;42.98;99821.63;5020037;28;20220;-80
2021/05/06 13:59:23;;;;;;;2.17;1.07;;;;;;;13.52;41.58;99818.84;5017820;28;20193;-78
2021/05/06 14:01:56;;;;;;;0.93;0.90;;;;;;;13.36;41.51;99816.00;5029456;28;20223;-78
2021/05/06 14:04:21;;;;;;;1.40;1.10;;;;;;;13.05;42.05;99817.84;5014381;28;20185;-77
2021/05/06 14:06:52;;;;;;;2.00;1.27;;;;;;;12.87;43.67;99816.06;5016170;28;20225;-79
2021/05/06 14:09:20;;;;;;;1.43;1.13;;;;;;;13.32;44.25;99815.03;5011157;28;20209;-78
2021/05/06 14:11:47;;;;;;;1.67;1.27;;;;;;;13.32;43.11;99813.09;5007570;28;20236;-79
2021/05/06 14:14:16;;;;;;;1.47;1.10;;;;;;;12.82;42.91;99813.50;5028534;28;20253;-80
2021/05/06 14:16:45;;;;;;;2.20;1.23;;;;;;;12.74;44.42;99827.78;5002383;28;20232;-80
2021/05/06 14:19:16;;;;;;;1.27;1.00;;;;;;;12.21;45.75;99821.63;5007032;28;20185;-81
2021/05/06 14:21:47;;;;;;;1.90;1.53;;;;;;;11.80;48.08;99837.09;5014927;28;20710;-78
2021/05/06 14:24:16;;;;;;;1.40;1.30;;;;;;;11.88;48.17;99838.31;5000757;28;20821;-79
2021/05/06 14:26:44;;;;;;;2.63;1.43;;;;;;;11.76;46.41;99846.97;5023459;28;20363;-80
2021/05/06 14:29:12;;;;;;;3.67;1.50;;;;;;;11.35;48.04;99838.97;5029980;28;20657;-79
2021/05/06 14:31:38;;;;;;;3.57;1.33;;;;;;;11.73;47.57;99831.25;5017523;28;20290;-81
2021/05/06 14:34:04;;;;;;;1.00;0.90;;;;;;;11.32;47.89;99840.38;4998711;28;20190;-79
2021/05/06 14:36:34;;;;;;;2.27;1.20;;;;;;;11.04;48.20;99858.78;4999059;28;20730;-80
2021/05/06 14:39:02;;;;;;;3.00;0.90;;;;;;;10.55;49.39;99861.09;4999197;28;20311;-80
2021/05/06 14:41:28;;;;;;;1.80;0.80;;;;;;;10.29;50.73;99856.25;5013254;28;20213;-80
2021/05/06 14:43:56;;;;;;;2.87;0.93;;;;;;;10.01;51.62;99861.75;5002350;28;20271;-78
2021/05/06 14:46:24;;;;;;;3.20;1.20;;;;;;;9.99;53.44;99866.66;5005075;28;20224;-79
2021/05/06 14:48:50;;;;;;;1.83;1.20;;;;;;;10.18;54.26;99864.81;4986307;28;20669;-78
2021/05/06 14:51:20;;;;;;;4.33;1.20;;;;;;;10.08;56.60;99864.94;5004186;28;20220;-79
2021/05/06 14:53:52;;;;;;;1.13;0.90;;;;;;;10.38;55.72;99860.78;5012410;28;20185;-81
2021/05/06 14:56:21;;;;;;;1.83;1.37;;;;;;;10.50;54.75;99860.34;5021329;28;20220;-80
2021/05/06 14:58:51;;;;;;;2.73;1.10;;;;;;;9.85;56.00;99860.25;5009924;28;20193;-79
2021/05/06 15:01:17;;;;;;;2.57;1.23;;;;;;;9.80;56.69;99857.59;5016465;28;20243;-80
2021/05/06 15:03:45;;;;;;;1.63;1.10;;;;;;;9.84;56.76;99858.66;5034229;28;20176;-80
2021/05/06 15:06:13;;;;;;;2.37;1.00;;;;;;;10.10;56.06;99852.69;5016704;28;20295;-79
2021/05/06 15:08:43;;;;;;;2.60;1.27;;;;;;;10.23;56.27;99841.13;5032463;28;20200;-79
2021/05/06 15:11:10;;;;;;;1.63;1.10;;;;;;;11.05;54.57;99828.59;4983650;28;20671;-78